createdAt,value
2023-05-20T00:01:30.048Z,101028.66
2023-05-20T00:03:57.941Z,101042.84
2023-05-20T00:06:25.272Z,101035.78
2023-05-20T00:08:52.326Z,101038.38
2023-05-20T00:11:19.342Z,101009.50
2023-05-20T00:13:46.347Z,101040.25
2023-05-20T00:16:13.430Z,101032.47
2023-05-20T00:18:40.644Z,100976.03
2023-05-20T00:21:07.765Z,101029.97
2023-05-20T00:23:34.838Z,100990.47
2023-05-20T00:26:02.046Z,101036.94
2023-05-20T00:28:30.623Z,101015.72
2023-05-20T00:30:57.784Z,101006.78
2023-05-20T00:33:24.854Z,101038.34
2023-05-20T00:35:52.162Z,101034.75
2023-05-20T00:38:19.338Z,101030.41
2023-05-20T00:40:46.641Z,101030.41
2023-05-20T00:43:13.777Z,101018.06
2023-05-20T00:45:41.608Z,101023.38
2023-05-20T00:48:09.842Z,101006.78
2023-05-20T00:50:37.299Z,101026.94
2023-05-20T00:53:06.000Z,101025.94
2023-05-20T00:55:33.382Z,101021.47
2023-05-20T00:58:00.920Z,101029.34
2023-05-20T01:00:28.003Z,101034.66
2023-05-20T01:02:57.040Z,101025.91
2023-05-20T01:05:24.473Z,101017.75
2023-05-20T01:07:51.773Z,101025.69
2023-05-20T01:10:19.060Z,101037.19
2023-05-20T01:12:54.422Z,101029.31
2023-05-20T01:15:24.414Z,101017.06
2023-05-20T01:17:58.096Z,101025.81
2023-05-20T01:20:26.209Z,101016.06
2023-05-20T01:22:57.071Z,101014.34
2023-05-20T01:25:25.294Z,101024.91
2023-05-20T01:27:54.368Z,101034.44
2023-05-20T01:30:22.344Z,101029.16
2023-05-20T01:32:55.329Z,101031.75
2023-05-20T01:35:23.284Z,101018.44
2023-05-20T01:37:53.170Z,101014.06
2023-05-20T01:40:21.573Z,101029.97
2023-05-20T01:42:53.362Z,101024.66
2023-05-20T01:45:21.560Z,101034.25
2023-05-20T01:47:50.240Z,101027.28
2023-05-20T01:50:17.425Z,101026.41
2023-05-20T01:52:44.577Z,101035.91
2023-05-20T01:55:11.846Z,101032.50
2023-05-20T01:57:38.945Z,101036.84
2023-05-20T02:00:06.966Z,101036.91
2023-05-20T02:02:41.363Z,101033.41
2023-05-20T02:05:11.252Z,101029.97
2023-05-20T02:07:38.522Z,101029.97
2023-05-20T02:10:06.500Z,101038.69
2023-05-20T02:12:36.937Z,101025.41
2023-05-20T02:15:06.505Z,101033.41
2023-05-20T02:17:34.815Z,101027.16
2023-05-20T02:20:22.080Z,101034.16
2023-05-20T02:22:49.239Z,101020.84
2023-05-20T02:25:16.407Z,101034.03
2023-05-20T02:27:44.696Z,101035.75
2023-05-20T02:30:13.242Z,101028.59
2023-05-20T02:32:41.658Z,101035.59
2023-05-20T02:35:09.532Z,101024.19
2023-05-20T02:37:39.130Z,100950.09
2023-05-20T02:40:07.205Z,101028.63
2023-05-20T02:42:34.306Z,101019.72
2023-05-20T02:45:01.387Z,100996.16
2023-05-20T02:47:29.047Z,101033.00
2023-05-20T02:49:56.642Z,101033.97
2023-05-20T02:52:23.740Z,101029.56
2023-05-20T02:54:50.953Z,101039.22
2023-05-20T02:57:18.902Z,101034.09
2023-05-20T02:59:46.220Z,101028.84
2023-05-20T03:02:13.496Z,101016.34
2023-05-20T03:04:41.197Z,101038.22
2023-05-20T03:07:09.154Z,101039.91
2023-05-20T03:09:36.769Z,101032.94
2023-05-20T03:12:05.587Z,101037.31
2023-05-20T03:14:32.747Z,101019.59
2023-05-20T03:17:00.273Z,101034.53
2023-05-20T03:19:27.593Z,101017.69
2023-05-20T03:21:54.952Z,101038.03
2023-05-20T03:24:23.639Z,101044.13
2023-05-20T03:26:51.033Z,101043.28
2023-05-20T03:29:18.461Z,101038.06
2023-05-20T03:31:46.533Z,101044.09
2023-05-20T03:34:14.148Z,101036.13
2023-05-20T03:36:41.596Z,101031.88
2023-05-20T03:39:08.850Z,101042.53
2023-05-20T03:41:36.243Z,101041.78
2023-05-20T03:44:03.799Z,101044.44
2023-05-20T03:46:32.750Z,101033.88
2023-05-20T03:49:02.177Z,101047.94
2023-05-20T03:51:29.348Z,101050.38
2023-05-20T03:54:02.761Z,101043.59
2023-05-20T03:56:29.844Z,101045.31
2023-05-20T03:58:57.278Z,101033.84
2023-05-20T04:01:26.064Z,101046.06
2023-05-20T04:03:53.711Z,101026.69
2023-05-20T04:06:22.714Z,101037.38
2023-05-20T04:08:51.164Z,101045.28
2023-05-20T04:11:21.808Z,101045.31
2023-05-20T04:13:49.139Z,101042.59
2023-05-20T04:16:16.862Z,101044.31
2023-05-20T04:18:46.201Z,101052.25
2023-05-20T04:21:14.238Z,101043.69
2023-05-20T04:23:41.864Z,101040.28
2023-05-20T04:26:09.156Z,101053.38
2023-05-20T04:28:37.902Z,101042.22
2023-05-20T04:31:06.188Z,101032.66
2023-05-20T04:33:39.745Z,101034.59
2023-05-20T04:36:09.998Z,101036.47
2023-05-20T04:38:37.492Z,101049.50
2023-05-20T04:41:04.895Z,101041.84
2023-05-20T04:43:32.065Z,101016.53
2023-05-20T04:46:06.214Z,101033.22
2023-05-20T04:48:34.586Z,101040.38
2023-05-20T04:51:02.340Z,101031.72
2023-05-20T04:53:31.997Z,101038.78
2023-05-20T04:56:03.439Z,101029.09
2023-05-20T04:58:31.905Z,101034.56
2023-05-20T05:01:00.260Z,101041.66
2023-05-20T05:03:27.741Z,101041.84
2023-05-20T05:05:59.110Z,101030.50
2023-05-20T05:08:27.161Z,101042.88
2023-05-20T05:10:54.566Z,101031.88
2023-05-20T05:13:21.792Z,101039.81
2023-05-20T05:15:49.370Z,101038.94
2023-05-20T05:18:18.722Z,101027.53
2023-05-20T05:20:46.578Z,101039.03
2023-05-20T05:23:14.359Z,101028.63
2023-05-20T05:25:41.832Z,101026.06
2023-05-20T05:28:08.871Z,101032.28
2023-05-20T05:30:37.683Z,101035.91
2023-05-20T05:33:05.947Z,101011.38
2023-05-20T05:35:33.427Z,101027.25
2023-05-20T05:38:01.052Z,101015.88
2023-05-20T05:40:29.378Z,101016.97
2023-05-20T05:42:56.466Z,101025.06
2023-05-20T05:45:23.596Z,101021.72
2023-05-20T05:47:50.848Z,101026.31
2023-05-20T05:50:18.134Z,101029.75
2023-05-20T05:52:45.198Z,101027.34
2023-05-20T05:55:12.932Z,101012.50
2023-05-20T05:57:40.093Z,101030.31
2023-05-20T06:00:08.160Z,101025.13
2023-05-20T06:02:47.967Z,101033.88
2023-05-20T06:05:29.708Z,101022.66
2023-05-20T06:07:57.456Z,101032.31
2023-05-20T06:10:25.281Z,101015.78
2023-05-20T06:12:52.710Z,101031.81
2023-05-20T06:15:20.448Z,101023.97
2023-05-20T06:17:47.770Z,101034.34
2023-05-20T06:20:16.377Z,100997.50
2023-05-20T06:22:44.267Z,101032.81
2023-05-20T06:25:13.463Z,101038.28
2023-05-20T06:27:41.401Z,101027.88
2023-05-20T06:30:12.036Z,100980.41
2023-05-20T06:32:39.165Z,101028.78
2023-05-20T06:35:06.750Z,101033.25
2023-05-20T06:37:34.273Z,101036.75
2023-05-20T06:40:01.997Z,101020.22
2023-05-20T06:42:33.127Z,101041.38
2023-05-20T06:45:04.828Z,101024.75
2023-05-20T06:47:42.694Z,101030.31
2023-05-20T06:50:10.914Z,101036.56
2023-05-20T06:52:38.057Z,101016.53
2023-05-20T06:55:05.885Z,101021.22
2023-05-20T06:57:34.416Z,101027.44
2023-05-20T07:00:01.810Z,101017.84
2023-05-20T07:02:34.051Z,101017.16
2023-05-20T07:05:01.499Z,101003.34
2023-05-20T07:07:31.873Z,101015.78
2023-05-20T07:09:59.165Z,101011.34
2023-05-20T07:12:26.352Z,101028.81
2023-05-20T07:14:53.409Z,101021.84
2023-05-20T07:17:21.545Z,100973.50
2023-05-20T07:19:48.641Z,101016.75
2023-05-20T07:22:16.061Z,100979.88
2023-05-20T07:25:07.062Z,101025.69
2023-05-20T07:27:36.851Z,101016.06
2023-05-20T07:30:04.724Z,101022.19
2023-05-20T07:32:33.726Z,101023.09
2023-05-20T07:35:01.574Z,101016.06
2023-05-20T07:37:30.725Z,101022.13
2023-05-20T07:39:57.850Z,101016.00
2023-05-20T07:42:25.523Z,101017.03
2023-05-20T07:44:58.190Z,101014.53
2023-05-20T07:47:25.522Z,101005.00
2023-05-20T07:49:53.493Z,101003.28
2023-05-20T07:52:21.046Z,101012.03
2023-05-20T07:54:48.388Z,101009.38
2023-05-20T07:57:15.622Z,101000.63
2023-05-20T07:59:42.913Z,101004.91
2023-05-20T08:02:10.136Z,100990.88
2023-05-20T08:04:37.358Z,101008.44
2023-05-20T08:07:04.867Z,101006.69
2023-05-20T08:09:41.730Z,101010.25
2023-05-20T08:12:08.848Z,100996.34
2023-05-20T08:14:36.014Z,101004.25
2023-05-20T08:17:04.142Z,101006.84
2023-05-20T08:19:31.576Z,100996.34
2023-05-20T08:21:58.745Z,101001.59
2023-05-20T08:24:25.838Z,100998.00
2023-05-20T08:26:53.618Z,101017.28
2023-05-20T08:29:23.914Z,101005.00
2023-05-20T08:31:52.356Z,101017.25
2023-05-20T08:34:20.334Z,100987.34
2023-05-20T08:36:47.422Z,101014.53
2023-05-20T08:39:15.381Z,101019.78
2023-05-20T08:41:42.814Z,101007.44
2023-05-20T08:44:11.749Z,101014.38
2023-05-20T08:46:41.771Z,101009.94
2023-05-20T08:49:09.048Z,101009.06
2023-05-20T08:51:37.681Z,101013.38
2023-05-20T08:54:05.276Z,101006.41
2023-05-20T08:56:33.999Z,101009.94
2023-05-20T08:59:01.507Z,101008.19
2023-05-20T09:01:28.803Z,100988.91
2023-05-20T09:03:56.211Z,101015.25
2023-05-20T09:06:24.263Z,101009.88
2023-05-20T09:08:52.058Z,101009.88
2023-05-20T09:11:21.871Z,101008.25
2023-05-20T09:13:50.560Z,101014.38
2023-05-20T09:16:17.721Z,101007.44
2023-05-20T09:18:44.863Z,101010.09
2023-05-20T09:21:11.975Z,101008.38
2023-05-20T09:23:39.102Z,101019.81
2023-05-20T09:26:06.956Z,101007.63
2023-05-20T09:28:36.166Z,101017.19
2023-05-20T09:31:03.348Z,101005.78
2023-05-20T09:33:32.318Z,101006.59
2023-05-20T09:36:08.268Z,101023.28
2023-05-20T09:38:39.853Z,101014.38
2023-05-20T09:41:11.804Z,101018.69
2023-05-20T09:43:40.606Z,101023.03
2023-05-20T09:46:09.331Z,101029.94
2023-05-20T09:48:40.007Z,101023.81
2023-05-20T09:51:08.165Z,101002.63
2023-05-20T09:53:36.302Z,100966.56
2023-05-20T09:56:03.646Z,101026.28
2023-05-20T09:58:31.582Z,101013.16
2023-05-20T10:00:58.931Z,101019.22
2023-05-20T10:03:28.339Z,101001.66
2023-05-20T10:06:34.353Z,101023.72
2023-05-20T10:09:37.944Z,101032.38
2023-05-20T10:12:14.513Z,101018.34
2023-05-20T10:15:07.459Z,101034.19
2023-05-20T10:18:09.184Z,101002.59
2023-05-20T10:20:49.976Z,101013.97
2023-05-20T10:23:43.462Z,101035.09
2023-05-20T10:26:11.233Z,101020.97
2023-05-20T10:28:41.045Z,101033.28
2023-05-20T10:31:24.195Z,101042.13
2023-05-20T10:33:53.566Z,101035.16
2023-05-20T10:36:28.063Z,101044.03
2023-05-20T10:38:59.376Z,101031.00
2023-05-20T10:41:29.489Z,101041.50
2023-05-20T10:44:06.840Z,101028.28
2023-05-20T10:46:53.794Z,101043.16
2023-05-20T10:49:26.847Z,101032.72
2023-05-20T10:51:55.703Z,101012.56
2023-05-20T10:54:23.483Z,101023.16
2023-05-20T10:56:54.274Z,101033.72
2023-05-20T10:59:22.364Z,101036.38
2023-05-20T11:01:49.737Z,101029.28
2023-05-20T11:04:19.921Z,101037.22
2023-05-20T11:06:54.414Z,101032.78
2023-05-20T11:09:22.538Z,101024.00
2023-05-20T11:11:51.496Z,101022.22
2023-05-20T11:14:20.251Z,101016.94
2023-05-20T11:16:51.317Z,101032.72
2023-05-20T11:19:19.273Z,101009.94
2023-05-20T11:21:47.320Z,101024.00
2023-05-20T11:24:22.262Z,101019.63
2023-05-20T11:26:49.433Z,101036.28
2023-05-20T11:29:16.637Z,101014.31
2023-05-20T11:31:43.705Z,101029.22
2023-05-20T11:34:10.967Z,101028.31
2023-05-20T11:36:42.731Z,101031.03
2023-05-20T11:39:14.974Z,101043.28
2023-05-20T11:41:44.950Z,101044.97
2023-05-20T11:44:15.931Z,101041.59
2023-05-20T11:46:44.638Z,101039.00
2023-05-20T11:49:13.840Z,101024.09
2023-05-20T11:51:41.681Z,101039.06
2023-05-20T11:54:09.177Z,101014.53
2023-05-20T11:56:41.568Z,101028.63
2023-05-20T11:59:10.838Z,101029.53
2023-05-20T12:01:43.535Z,101029.66
2023-05-20T12:04:12.117Z,100956.00
2023-05-20T12:06:40.185Z,101025.28
2023-05-20T12:09:08.841Z,101022.66
2023-05-20T12:11:37.495Z,101033.13
2023-05-20T12:14:04.885Z,101019.91
2023-05-20T12:16:36.684Z,101025.19
2023-05-20T12:19:04.506Z,101035.66
2023-05-20T12:21:32.295Z,101040.91
2023-05-20T12:24:00.026Z,101034.78
2023-05-20T12:26:29.086Z,101040.88
2023-05-20T12:28:56.634Z,101038.25
2023-05-20T12:31:24.579Z,101029.50
2023-05-20T12:33:51.756Z,101020.69
2023-05-20T12:36:19.859Z,101034.75
2023-05-20T12:38:47.433Z,101013.69
2023-05-20T12:41:14.673Z,101026.88
2023-05-20T12:43:41.783Z,101027.78
2023-05-20T12:46:08.908Z,100997.94
2023-05-20T12:48:37.072Z,101025.22
2023-05-20T12:51:04.516Z,101032.22
2023-05-20T12:53:31.650Z,101030.47
2023-05-20T12:55:58.765Z,101039.22
2023-05-20T12:58:25.855Z,101015.50
2023-05-20T13:00:52.948Z,101031.34
2023-05-20T13:03:20.227Z,101026.91
2023-05-20T13:05:47.477Z,101016.38
2023-05-20T13:08:15.031Z,100977.66
2023-05-20T13:10:42.277Z,101000.53
2023-05-20T13:13:09.383Z,101013.66
2023-05-20T13:15:36.983Z,101018.06
2023-05-20T13:18:06.864Z,101028.56
2023-05-20T13:20:34.483Z,100976.81
2023-05-20T13:23:01.947Z,101028.66
2023-05-20T13:25:29.402Z,101033.03
2023-05-20T13:27:56.524Z,101044.38
2023-05-20T13:30:23.602Z,101026.78
2023-05-20T13:32:50.758Z,101028.41
2023-05-20T13:35:18.375Z,101045.03
2023-05-20T13:37:45.589Z,101037.97
2023-05-20T13:40:13.139Z,101034.44
2023-05-20T13:42:40.220Z,101022.09
2023-05-20T13:45:07.919Z,101031.75
2023-05-20T13:47:35.023Z,101045.78
2023-05-20T13:50:06.514Z,101037.91
2023-05-20T13:52:33.578Z,101037.00
2023-05-20T13:55:00.644Z,101036.09
2023-05-20T13:57:27.926Z,101025.56
2023-05-20T13:59:54.905Z,101029.97
2023-05-20T14:02:22.187Z,101030.81
2023-05-20T14:04:49.301Z,101022.06
2023-05-20T14:07:16.602Z,101032.69
2023-05-20T14:09:43.737Z,101015.00
2023-05-20T14:12:11.061Z,101018.50
2023-05-20T14:14:38.170Z,101002.66
2023-05-20T14:17:05.257Z,101024.72
2023-05-20T14:19:32.490Z,101032.59
2023-05-20T14:22:01.329Z,101023.00
2023-05-20T14:24:28.755Z,101025.63
2023-05-20T14:26:56.380Z,100995.81
2023-05-20T14:29:23.501Z,101016.00
2023-05-20T14:31:50.793Z,101008.13
2023-05-20T14:34:18.073Z,101016.06
2023-05-20T14:36:45.250Z,101012.50
2023-05-20T14:39:12.341Z,100994.91
2023-05-20T14:41:39.444Z,101016.06
2023-05-20T14:44:06.801Z,101017.00
2023-05-20T14:46:34.177Z,101014.38
2023-05-20T14:49:01.593Z,101017.88
2023-05-20T14:51:28.640Z,101016.94
2023-05-20T14:53:55.749Z,101011.69
2023-05-20T14:56:23.241Z,100992.41
2023-05-20T14:58:50.277Z,101008.19
2023-05-20T15:01:17.751Z,100995.03
2023-05-20T15:03:44.932Z,101005.56
2023-05-20T15:06:13.397Z,101005.56
2023-05-20T15:08:40.460Z,100966.13
2023-05-20T15:11:07.497Z,100992.50
2023-05-20T15:13:34.517Z,100996.03
2023-05-20T15:16:01.672Z,100975.03
2023-05-20T15:18:29.150Z,100986.47
2023-05-20T15:20:56.169Z,100980.38
2023-05-20T15:23:23.251Z,100984.75
2023-05-20T15:25:50.540Z,100966.31
2023-05-20T15:28:19.866Z,100985.63
2023-05-20T15:30:51.671Z,100985.63
2023-05-20T15:33:18.837Z,100992.63
2023-05-20T15:35:45.937Z,100991.69
2023-05-20T15:38:14.176Z,100970.59
2023-05-20T15:40:41.508Z,100993.38
2023-05-20T15:43:08.642Z,100971.41
2023-05-20T15:45:35.837Z,100989.78
2023-05-20T15:48:02.942Z,100958.19
2023-05-20T15:50:30.204Z,100988.84
2023-05-20T15:52:57.352Z,100975.69
2023-05-20T15:55:24.500Z,100983.53
2023-05-20T15:57:51.787Z,100978.22
2023-05-20T16:00:20.355Z,100985.25
2023-05-20T16:02:48.135Z,100986.09
2023-05-20T16:05:15.823Z,100931.66
2023-05-20T16:07:42.981Z,100962.34
2023-05-20T16:10:10.461Z,100972.84
2023-05-20T16:12:37.583Z,100983.38
2023-05-20T16:15:05.150Z,100969.34
2023-05-20T16:17:32.764Z,100935.06
2023-05-20T16:19:59.901Z,100969.22
2023-05-20T16:22:26.951Z,100992.91
2023-05-20T16:24:54.204Z,100993.75
2023-05-20T16:27:21.298Z,100984.97
2023-05-20T16:29:49.931Z,100991.91
2023-05-20T16:32:16.972Z,101003.16
2023-05-20T16:34:43.982Z,101000.34
2023-05-20T16:37:11.980Z,100970.38
2023-05-20T16:39:39.212Z,100966.75
2023-05-20T16:42:09.007Z,101011.47
2023-05-20T16:44:39.347Z,101005.25
2023-05-20T16:47:07.502Z,101005.09
2023-05-20T16:49:34.845Z,101009.34
2023-05-20T16:52:02.009Z,101016.34
2023-05-20T16:54:29.183Z,101018.84
2023-05-20T16:56:56.586Z,101019.69
2023-05-20T16:59:25.876Z,101012.69
2023-05-20T17:01:53.034Z,101014.44
2023-05-20T17:04:20.100Z,101011.69
2023-05-20T17:06:49.940Z,101017.84
2023-05-20T17:09:17.202Z,101017.75
2023-05-20T17:11:44.733Z,101017.69
2023-05-20T17:14:11.949Z,101002.72
2023-05-20T17:16:39.081Z,101035.22
2023-05-20T17:19:06.302Z,101034.31
2023-05-20T17:21:34.723Z,101035.97
2023-05-20T17:24:01.813Z,101033.31
2023-05-20T17:26:28.937Z,101035.88
2023-05-20T17:28:56.140Z,101039.28
2023-05-20T17:31:23.223Z,101025.09
2023-05-20T17:33:50.514Z,101032.13
2023-05-20T17:36:17.834Z,101017.91
2023-05-20T17:38:44.917Z,101037.94
2023-05-20T17:41:12.027Z,101022.91
2023-05-20T17:43:39.150Z,101022.72
2023-05-20T17:46:06.615Z,101017.19
2023-05-20T17:48:33.698Z,100984.44
2023-05-20T17:51:00.892Z,101010.66
2023-05-20T17:53:28.118Z,101015.00
2023-05-20T17:55:55.379Z,101012.38
2023-05-20T17:58:25.063Z,101002.69
2023-05-20T18:00:52.403Z,100994.66
2023-05-20T18:03:19.975Z,100997.19
2023-05-20T18:05:47.756Z,100996.19
2023-05-20T18:08:14.995Z,100986.34
2023-05-20T18:10:42.122Z,100994.13
2023-05-20T18:13:09.319Z,100989.63
2023-05-20T18:15:36.511Z,100992.94
2023-05-20T18:18:03.770Z,100985.78
2023-05-20T18:20:30.978Z,100984.75
2023-05-20T18:22:58.742Z,100980.31
2023-05-20T18:25:26.201Z,100980.28
2023-05-20T18:27:53.594Z,100981.97
2023-05-20T18:30:20.715Z,100981.00
2023-05-20T18:32:47.870Z,100980.06
2023-05-20T18:35:15.019Z,100973.97
2023-05-20T18:37:42.165Z,100965.00
2023-05-20T18:40:09.636Z,100955.41
2023-05-20T18:42:37.322Z,100977.38
2023-05-20T18:45:04.863Z,100969.53
2023-05-20T18:47:32.753Z,100951.09
2023-05-20T18:49:59.956Z,100959.19
2023-05-20T18:52:27.055Z,100960.91
2023-05-20T18:54:54.100Z,100952.09
2023-05-20T18:57:22.792Z,100938.88
2023-05-20T18:59:49.913Z,100956.31
2023-05-20T19:02:17.484Z,100951.09
2023-05-20T19:04:44.921Z,100955.47
2023-05-20T19:07:12.106Z,100944.09
2023-05-20T19:09:39.152Z,100943.03
2023-05-20T19:12:06.863Z,100950.13
2023-05-20T19:14:33.946Z,100933.72
2023-05-20T19:17:01.372Z,100936.44
2023-05-20T19:19:28.531Z,100928.63
2023-05-20T19:21:55.781Z,100922.31
2023-05-20T19:24:22.923Z,100924.09
2023-05-20T19:26:50.204Z,100918.81
2023-05-20T19:29:17.290Z,100873.78
2023-05-20T19:31:44.865Z,100920.38
2023-05-20T19:34:11.924Z,100916.00
2023-05-20T19:36:40.460Z,100916.84
2023-05-20T19:39:08.112Z,100919.47
2023-05-20T19:41:35.352Z,100901.03
2023-05-20T19:44:02.599Z,100911.56
2023-05-20T19:46:29.851Z,100909.09
2023-05-20T19:48:58.317Z,100876.84
2023-05-20T19:51:25.820Z,100905.06
2023-05-20T19:53:53.019Z,100892.84
2023-05-20T19:56:22.009Z,100876.13
2023-05-20T19:58:49.084Z,100896.38
2023-05-20T20:01:19.549Z,100898.97
2023-05-20T20:03:46.675Z,100887.50
2023-05-20T20:06:13.745Z,100888.03
2023-05-20T20:08:41.762Z,100887.22
2023-05-20T20:11:09.367Z,100888.03
2023-05-20T20:13:36.491Z,100888.88
2023-05-20T20:16:03.708Z,100887.91
2023-05-20T20:18:32.451Z,100889.56
2023-05-20T20:21:06.086Z,100882.63
2023-05-20T20:23:33.493Z,100880.91
2023-05-20T20:26:00.595Z,100870.56
2023-05-20T20:28:27.778Z,100869.66
2023-05-20T20:30:54.876Z,100871.31
2023-05-20T20:33:22.076Z,100860.03
2023-05-20T20:35:49.302Z,100847.69
2023-05-20T20:38:16.420Z,100848.44
2023-05-20T20:40:44.983Z,100839.47
2023-05-20T20:43:20.549Z,100852.53
2023-05-20T20:45:50.783Z,100848.16
2023-05-20T20:48:18.987Z,100834.94
2023-05-20T20:50:48.113Z,100857.72
2023-05-20T20:53:18.470Z,100834.88
2023-05-20T20:55:51.375Z,100842.34
2023-05-20T20:58:19.017Z,100841.47
2023-05-20T21:00:48.794Z,100843.16
2023-05-20T21:03:16.311Z,100841.41
2023-05-20T21:05:44.569Z,100818.50
2023-05-20T21:08:13.361Z,100830.09
2023-05-20T21:10:40.765Z,100829.19
2023-05-20T21:13:08.188Z,100832.66
2023-05-20T21:15:35.580Z,100788.75
2023-05-20T21:18:02.961Z,100824.75
2023-05-20T21:20:30.126Z,100830.81
2023-05-20T21:22:57.153Z,100797.53
2023-05-20T21:25:24.236Z,100811.53
2023-05-20T21:27:51.630Z,100811.56
2023-05-20T21:30:20.186Z,100798.50
2023-05-20T21:32:47.398Z,100802.88
2023-05-20T21:35:14.861Z,100807.22
2023-05-20T21:37:42.204Z,100801.81
2023-05-20T21:40:09.624Z,100804.72
2023-05-20T21:42:36.842Z,100803.03
2023-05-20T21:45:04.306Z,100765.25
2023-05-20T21:47:33.410Z,100788.13
2023-05-20T21:50:00.544Z,100791.59
2023-05-20T21:52:27.721Z,100796.81
2023-05-20T21:54:55.065Z,100790.69
2023-05-20T21:57:22.333Z,100792.41
2023-05-20T21:59:49.453Z,100778.44
2023-05-20T22:02:17.663Z,100780.25
2023-05-20T22:04:44.737Z,100776.81
2023-05-20T22:07:11.836Z,100779.41
2023-05-20T22:09:38.861Z,100750.88
2023-05-20T22:12:05.983Z,100783.22
2023-05-20T22:14:33.108Z,100773.88
2023-05-20T22:17:00.190Z,100767.59
2023-05-20T22:19:28.178Z,100766.97
2023-05-20T22:21:55.770Z,100765.03
2023-05-20T22:24:23.097Z,100732.53
2023-05-20T22:26:50.322Z,100765.06
2023-05-20T22:29:17.520Z,100741.34
2023-05-20T22:31:44.825Z,100753.69
2023-05-20T22:34:12.067Z,100749.31
2023-05-20T22:36:39.610Z,100748.41
2023-05-20T22:39:07.201Z,100732.63
2023-05-20T22:41:34.287Z,100748.47
2023-05-20T22:44:01.506Z,100731.00
2023-05-20T22:46:28.779Z,100727.53
2023-05-20T22:48:58.455Z,100732.34
2023-05-20T22:51:25.585Z,100732.44
2023-05-20T22:53:52.852Z,100732.53
2023-05-20T22:56:20.076Z,100724.56
2023-05-20T22:58:47.391Z,100737.63
2023-05-20T23:01:16.826Z,100728.94
2023-05-20T23:03:47.311Z,100708.75
2023-05-20T23:06:14.413Z,100724.53
2023-05-20T23:08:43.036Z,100719.34
2023-05-20T23:11:10.423Z,100724.56
2023-05-20T23:13:37.617Z,100716.75
2023-05-20T23:16:06.149Z,100700.13
2023-05-20T23:18:33.502Z,100693.91
2023-05-20T23:21:00.804Z,100708.91
2023-05-20T23:23:31.236Z,100691.38
2023-05-20T23:26:00.031Z,100706.38
2023-05-20T23:28:27.601Z,100702.97
2023-05-20T23:30:54.932Z,100703.78
2023-05-20T23:33:25.795Z,100670.34
2023-05-20T23:35:53.468Z,100700.28
2023-05-20T23:38:21.261Z,100695.94
2023-05-20T23:40:49.392Z,100626.56
2023-05-20T23:43:16.886Z,100699.41
2023-05-20T23:45:43.979Z,100695.00
2023-05-20T23:48:13.317Z,100688.94
2023-05-20T23:50:40.888Z,100698.56
2023-05-20T23:53:08.111Z,100682.75
2023-05-20T23:55:35.516Z,100693.34
2023-05-20T23:58:02.976Z,100694.19
